General Cabrera, Argentina
Current Conditions -  °F | °C
As of 12:00 PM on Tuesday 21 Oct 2014 (Local Time) from SAOC Reporting Station
Clear Clear  
Wind Chill: 84°   Ceiling: Unl
Heat Index: 84°   Visibility: 6mi
Dew Point: 57°   Wind: 23mph
Humidity: 40%   Direction: 360°N
Pressure: 29.97"   Gusts: 36mph
Location:  32.8°S, 63.87°W
Report Text: SAOC 211500Z 36020G31KT CAVOK 29/14 Q1015
Loading
Personal Weather Stations






























Interactive Weather Map New forecast layout! Learn more

10-Day Weather Forecast

Advertisements
Track Severe Weather on mobile